Estación Meteorológica Peña el Pijo (Robertgarden) [ 02/03/23 03:26:12 CET ]

Fecha Hora Presion(HPa) Temp (°C) Humedad % Rocio (°C) Viento ( m/s) Direccion Lluvia 1Hora(mm) Lluvia 24H(mm) LLuvia Total(mm)
2010-Dec-17 01:01:12 1007.300 -6.1 62 -12.2         12.43
2010-Dec-17 02:05:14 1006.300 -6.6 63 -12.5         12.43
2010-Dec-17 03:01:14 1005.600 -6.5 64 -12.2         12.43
2010-Dec-17 04:01:13 1005.200 -6.7 68 -11.7         12.43
2010-Dec-17 05:01:14 1004.400 -6.4 70 -11.0         12.43
2010-Dec-17 06:01:16 1003.700 -7.2 70 -11.8         12.43
2010-Dec-17 07:01:14 1002.900 -8.1 73 -12.1         12.43
2010-Dec-17 08:01:12 1002.400 -7.6 75 -11.3         12.43
2010-Dec-17 09:01:14 1002.300 -7.0 75 -10.8         12.43
2010-Dec-17 10:01:12 1002.000 0.2 64 -5.8         12.43
2010-Dec-17 11:01:13 1001.100 7.8 42 -4.4         12.43
2010-Dec-17 12:01:13 999.900 12.6 27 -6.1         12.43
2010-Dec-17 13:01:12 998.800 15.6 18 -9.0         12.43
2010-Dec-17 14:01:13 997.600 15.6 16 -10.7         12.43
2010-Dec-17 15:01:13 996.600 16.1 16 -10.3         12.43
2010-Dec-17 16:01:13 995.900 14.2 15 -12.7 3.0 SW     12.43
2010-Dec-17 17:01:17 996.300 10.7 19 -12.2         12.43
2010-Dec-17 18:01:16 996.300 5.8 32 -9.7         12.43
2010-Dec-17 19:01:12 996.600 2.4 39 -10.2         12.43
2010-Dec-17 20:01:16 996.200 1.9 40 -10.3         12.43
2010-Dec-17 21:01:13 996.600 1.3 44 -9.7         12.43
2010-Dec-17 22:01:13 996.300 0.8 49 -8.8         12.43
2010-Dec-17 23:01:13 995.700 1.2 50 -8.1         12.43

Temperatura Máxima:16°    Temperatura Mínima:-8°
Presión Máxima:1007.300 Hpa    Presión Mínima:995.700 Hpa


Volver